createdAt,value
2022-11-23T00:05:27.887Z,2.40
2022-11-23T00:12:10.833Z,2.60
2022-11-23T00:18:55.893Z,2.80
2022-11-23T00:25:39.109Z,2.88
2022-11-23T00:32:22.005Z,2.42
2022-11-23T00:39:04.736Z,2.95
2022-11-23T00:45:51.104Z,2.50
2022-11-23T00:52:33.718Z,2.30
2022-11-23T00:59:16.509Z,2.33
2022-11-23T01:06:04.643Z,2.55
2022-11-23T01:12:47.450Z,2.50
2022-11-23T01:19:30.857Z,2.08
2022-11-23T01:26:13.852Z,2.10
2022-11-23T01:32:56.719Z,2.47
2022-11-23T01:39:40.574Z,2.58
2022-11-23T01:46:24.075Z,2.25
2022-11-23T01:53:07.431Z,2.17
2022-11-23T01:59:51.268Z,2.75
2022-11-23T02:06:34.788Z,2.75
2022-11-23T02:13:18.460Z,2.60
2022-11-23T02:20:10.790Z,2.60
2022-11-23T02:26:53.529Z,2.65
2022-11-23T02:33:40.266Z,2.33
2022-11-23T02:40:30.567Z,2.22
2022-11-23T02:47:13.768Z,2.25
2022-11-23T02:53:56.085Z,2.53
2022-11-23T03:00:38.501Z,2.50
2022-11-23T03:07:21.079Z,2.72
2022-11-23T03:14:04.873Z,2.50
2022-11-23T03:20:56.063Z,2.35
2022-11-23T03:27:39.358Z,2.67
2022-11-23T03:34:23.487Z,1.98
2022-11-23T03:41:06.725Z,2.95
2022-11-23T03:48:00.416Z,2.47
2022-11-23T03:54:43.700Z,2.22
2022-11-23T04:01:27.918Z,2.65
2022-11-23T04:08:16.215Z,2.38
2022-11-23T04:14:58.665Z,2.40
2022-11-23T04:21:41.007Z,2.17
2022-11-23T04:28:24.656Z,3.80
2022-11-23T04:35:08.568Z,2.45
2022-11-23T04:41:52.198Z,3.08
2022-11-23T04:48:34.978Z,2.85
2022-11-23T04:55:18.996Z,3.22
2022-11-23T05:02:10.265Z,2.60
2022-11-23T05:09:14.922Z,2.80
2022-11-23T05:16:29.567Z,3.05
2022-11-23T05:23:12.341Z,3.30
2022-11-23T05:29:57.503Z,3.33
2022-11-23T05:36:42.408Z,2.70
2022-11-23T05:43:25.445Z,3.13
2022-11-23T05:50:08.535Z,3.15
2022-11-23T05:56:55.246Z,3.50
2022-11-23T06:03:42.927Z,4.30
2022-11-23T06:10:26.142Z,4.07
2022-11-23T06:17:09.101Z,3.70
2022-11-23T06:23:56.761Z,4.22
2022-11-23T06:30:40.036Z,3.70
2022-11-23T06:37:23.441Z,3.45
2022-11-23T06:44:08.601Z,4.97
2022-11-23T06:50:59.990Z,3.50
2022-11-23T06:57:42.923Z,3.80
2022-11-23T07:04:27.510Z,4.88
2022-11-23T07:11:11.508Z,3.53
2022-11-23T07:17:54.322Z,3.67
2022-11-23T07:24:43.904Z,3.63
2022-11-23T07:31:28.946Z,3.25
2022-11-23T07:38:11.381Z,3.75
2022-11-23T07:44:53.785Z,4.05
2022-11-23T07:51:36.069Z,2.80
2022-11-23T07:58:18.621Z,4.40
2022-11-23T08:05:01.098Z,3.13
2022-11-23T08:11:43.435Z,3.53
2022-11-23T08:18:25.847Z,3.10
2022-11-23T08:25:08.672Z,3.20
2022-11-23T08:31:52.129Z,2.75
2022-11-23T08:38:35.413Z,3.30
2022-11-23T08:45:18.011Z,3.08
2022-11-23T08:52:00.340Z,2.97
2022-11-23T08:58:42.866Z,2.80
2022-11-23T09:05:25.994Z,2.92
2022-11-23T09:12:08.540Z,2.72
2022-11-23T09:18:54.636Z,3.03
2022-11-23T09:25:36.968Z,3.85
2022-11-23T09:32:19.315Z,2.85
2022-11-23T09:39:01.731Z,3.65
2022-11-23T09:45:51.140Z,3.95
2022-11-23T09:52:36.615Z,3.30
2022-11-23T09:59:40.692Z,3.53
2022-11-23T10:06:28.411Z,3.15
2022-11-23T10:13:10.707Z,3.35
2022-11-23T10:20:36.549Z,2.80
2022-11-23T10:27:24.146Z,2.53
2022-11-23T10:34:15.403Z,2.70
2022-11-23T10:41:04.150Z,2.25
2022-11-23T10:48:00.107Z,3.10
2022-11-23T10:54:53.549Z,2.92
2022-11-23T11:01:35.953Z,3.20
2022-11-23T11:08:20.656Z,2.42
2022-11-23T11:15:12.526Z,2.72
2022-11-23T11:21:56.117Z,2.72
2022-11-23T11:28:42.351Z,2.40
2022-11-23T11:35:42.660Z,2.53
2022-11-23T11:42:55.267Z,1.95
2022-11-23T11:49:44.476Z,2.40
2022-11-23T11:56:45.798Z,2.22
2022-11-23T12:03:51.614Z,2.25
2022-11-23T12:10:45.480Z,2.30
2022-11-23T12:17:36.042Z,2.42
2022-11-23T12:24:47.950Z,1.80
2022-11-23T12:32:01.604Z,1.38
2022-11-23T12:39:16.676Z,1.30
2022-11-23T12:46:05.094Z,1.92
2022-11-23T12:52:53.530Z,1.58
2022-11-23T12:59:47.124Z,1.80
2022-11-23T13:06:38.771Z,1.80
2022-11-23T13:13:40.017Z,1.70
2022-11-23T13:20:30.533Z,1.70
2022-11-23T13:27:15.946Z,1.73
2022-11-23T13:34:01.338Z,1.63
2022-11-23T13:40:45.413Z,2.10
2022-11-23T13:47:27.882Z,1.55
2022-11-23T13:54:22.495Z,1.67
2022-11-23T14:01:05.124Z,1.50
2022-11-23T14:07:47.646Z,1.83
2022-11-23T14:14:47.513Z,1.80
2022-11-23T14:21:56.479Z,1.77
2022-11-23T14:28:57.579Z,2.05
2022-11-23T14:35:57.153Z,1.52
2022-11-23T14:42:45.643Z,1.85
2022-11-23T14:49:28.024Z,1.90
2022-11-23T14:56:22.253Z,1.40
2022-11-23T15:03:48.911Z,1.80
2022-11-23T15:10:40.502Z,2.13
2022-11-23T15:17:23.925Z,2.40
2022-11-23T15:24:20.360Z,1.85
2022-11-23T15:31:25.615Z,1.80
2022-11-23T15:38:20.496Z,2.00
2022-11-23T15:45:06.217Z,1.75
2022-11-23T15:51:48.847Z,1.77
2022-11-23T15:58:32.245Z,1.70
2022-11-23T16:05:23.556Z,2.30
2022-11-23T16:12:20.772Z,1.80
2022-11-23T16:19:06.322Z,2.40
2022-11-23T16:26:04.230Z,2.40
2022-11-23T16:32:46.599Z,3.03
2022-11-23T16:39:29.197Z,3.58
2022-11-23T16:46:11.778Z,3.38
2022-11-23T16:52:54.564Z,3.38
2022-11-23T16:59:36.936Z,2.85
2022-11-23T17:06:23.045Z,3.53
2022-11-23T17:13:11.838Z,3.60
2022-11-23T17:19:54.201Z,3.83
2022-11-23T17:26:48.220Z,3.35
2022-11-23T17:33:30.581Z,2.05
2022-11-23T17:40:17.746Z,1.90
2022-11-23T17:47:00.922Z,1.70
2022-11-23T17:53:43.200Z,2.10
2022-11-23T18:00:28.704Z,1.80
2022-11-23T18:07:14.397Z,2.20
2022-11-23T18:13:56.738Z,2.00
2022-11-23T18:20:39.047Z,2.38
2022-11-23T18:27:21.758Z,2.00
2022-11-23T18:34:05.128Z,2.08
2022-11-23T18:40:47.567Z,2.78
2022-11-23T18:47:29.905Z,2.95
2022-11-23T18:54:12.262Z,2.92
2022-11-23T19:00:54.597Z,2.97
2022-11-23T19:07:37.055Z,3.53
2022-11-23T19:14:19.713Z,3.25
2022-11-23T19:21:10.886Z,3.10
2022-11-23T19:27:53.293Z,3.35
2022-11-23T19:34:35.692Z,2.90
2022-11-23T19:41:28.209Z,3.10
2022-11-23T19:48:15.159Z,3.83
2022-11-23T19:54:57.511Z,3.70
2022-11-23T20:01:39.939Z,3.83
2022-11-23T20:08:22.308Z,3.78
2022-11-23T20:15:05.174Z,3.72
2022-11-23T20:21:47.532Z,3.40
2022-11-23T20:28:30.005Z,4.40
2022-11-23T20:35:12.406Z,5.43
2022-11-23T20:41:56.370Z,3.38
2022-11-23T20:48:40.791Z,3.10
2022-11-23T20:55:23.374Z,2.55
2022-11-23T21:02:05.915Z,2.38
2022-11-23T21:08:50.162Z,3.45
2022-11-23T21:15:32.648Z,2.28
2022-11-23T21:22:18.727Z,2.90
2022-11-23T21:29:01.373Z,2.65
2022-11-23T21:35:43.999Z,3.05
2022-11-23T21:42:27.251Z,3.00
2022-11-23T21:49:13.436Z,3.38
2022-11-23T21:56:05.416Z,3.20
2022-11-23T22:02:48.101Z,2.83
2022-11-23T22:09:35.239Z,3.03
2022-11-23T22:16:20.548Z,3.72
2022-11-23T22:23:07.522Z,3.15
2022-11-23T22:29:54.210Z,2.75
2022-11-23T22:36:37.219Z,2.42
2022-11-23T22:43:20.267Z,2.70
2022-11-23T22:50:03.327Z,3.15
2022-11-23T22:56:46.195Z,3.92
2022-11-23T23:03:33.219Z,2.90
2022-11-23T23:10:17.823Z,3.17
2022-11-23T23:17:03.801Z,2.80
2022-11-23T23:23:50.828Z,3.75
2022-11-23T23:30:38.042Z,3.97
2022-11-23T23:37:27.571Z,4.32
2022-11-23T23:44:11.847Z,4.20
2022-11-23T23:50:58.466Z,3.63
2022-11-23T23:57:42.345Z,3.70
